sensor_id;sensor_type;location;lat;lon;timestamp;P1;durP1;ratioP1;P2;durP2;ratioP2
53513;SDS011;39768;54.148;12.174;2023-02-25T00:02:37;0.60;;;0.60;;
53513;SDS011;39768;54.148;12.174;2023-02-25T00:06:39;1.20;;;1.20;;
53513;SDS011;39768;54.148;12.174;2023-02-25T00:10:40;1.38;;;0.95;;
53513;SDS011;39768;54.148;12.174;2023-02-25T00:14:42;5.38;;;0.55;;
53513;SDS011;39768;54.148;12.174;2023-02-25T00:18:43;0.25;;;0.25;;
53513;SDS011;39768;54.148;12.174;2023-02-25T00:22:47;0.50;;;0.50;;
53513;SDS011;39768;54.148;12.174;2023-02-25T00:26:49;0.55;;;0.55;;
53513;SDS011;39768;54.148;12.174;2023-02-25T00:30:51;0.70;;;0.70;;
53513;SDS011;39768;54.148;12.174;2023-02-25T00:34:52;0.43;;;0.40;;
53513;SDS011;39768;54.148;12.174;2023-02-25T00:38:55;0.73;;;0.73;;
53513;SDS011;39768;54.148;12.174;2023-02-25T00:42:57;0.20;;;0.20;;
53513;SDS011;39768;54.148;12.174;2023-02-25T00:47:00;0.38;;;0.38;;
53513;SDS011;39768;54.148;12.174;2023-02-25T00:51:14;0.52;;;0.47;;
53513;SDS011;39768;54.148;12.174;2023-02-25T00:55:17;0.40;;;0.40;;
53513;SDS011;39768;54.148;12.174;2023-02-25T00:59:19;0.90;;;0.75;;
53513;SDS011;39768;54.148;12.174;2023-02-25T01:03:21;0.50;;;0.50;;
53513;SDS011;39768;54.148;12.174;2023-02-25T01:07:24;0.28;;;0.28;;
53513;SDS011;39768;54.148;12.174;2023-02-25T01:11:28;0.45;;;0.30;;
53513;SDS011;39768;54.148;12.174;2023-02-25T01:15:31;0.55;;;0.55;;
53513;SDS011;39768;54.148;12.174;2023-02-25T01:19:33;0.32;;;0.28;;
53513;SDS011;39768;54.148;12.174;2023-02-25T01:23:34;0.65;;;0.38;;
53513;SDS011;39768;54.148;12.174;2023-02-25T01:27:36;2.53;;;0.55;;
53513;SDS011;39768;54.148;12.174;2023-02-25T01:31:38;0.52;;;0.52;;
53513;SDS011;39768;54.148;12.174;2023-02-25T01:35:41;0.55;;;0.40;;
53513;SDS011;39768;54.148;12.174;2023-02-25T01:39:42;0.30;;;0.30;;
53513;SDS011;39768;54.148;12.174;2023-02-25T01:48:16;0.30;;;0.30;;
53513;SDS011;39768;54.148;12.174;2023-02-25T01:52:21;0.30;;;0.30;;
53513;SDS011;39768;54.148;12.174;2023-02-25T01:56:25;0.68;;;0.68;;
53513;SDS011;39768;54.148;12.174;2023-02-25T02:00:28;0.30;;;0.30;;
53513;SDS011;39768;54.148;12.174;2023-02-25T02:04:31;2.72;;;0.45;;
53513;SDS011;39768;54.148;12.174;2023-02-25T02:08:33;0.55;;;0.55;;
53513;SDS011;39768;54.148;12.174;2023-02-25T02:12:39;0.30;;;0.30;;
53513;SDS011;39768;54.148;12.174;2023-02-25T02:17:02;0.40;;;0.40;;
53513;SDS011;39768;54.148;12.174;2023-02-25T02:26:02;1.48;;;0.70;;
53513;SDS011;39768;54.148;12.174;2023-02-25T02:30:34;0.38;;;0.38;;
53513;SDS011;39768;54.148;12.174;2023-02-25T02:34:45;0.57;;;0.57;;
53513;SDS011;39768;54.148;12.174;2023-02-25T02:47:51;0.55;;;0.55;;
53513;SDS011;39768;54.148;12.174;2023-02-25T02:52:01;0.40;;;0.40;;
53513;SDS011;39768;54.148;12.174;2023-02-25T02:56:06;0.40;;;0.40;;
53513;SDS011;39768;54.148;12.174;2023-02-25T03:00:12;0.40;;;0.40;;
53513;SDS011;39768;54.148;12.174;2023-02-25T03:04:24;0.45;;;0.45;;
53513;SDS011;39768;54.148;12.174;2023-02-25T03:08:30;1.45;;;0.50;;
53513;SDS011;39768;54.148;12.174;2023-02-25T03:12:36;1.85;;;0.47;;
53513;SDS011;39768;54.148;12.174;2023-02-25T03:20:54;0.25;;;0.25;;
53513;SDS011;39768;54.148;12.174;2023-02-25T03:25:00;0.30;;;0.30;;
53513;SDS011;39768;54.148;12.174;2023-02-25T03:29:16;0.30;;;0.30;;
53513;SDS011;39768;54.148;12.174;2023-02-25T03:33:25;1.40;;;0.70;;
53513;SDS011;39768;54.148;12.174;2023-02-25T03:37:32;0.70;;;0.70;;
53513;SDS011;39768;54.148;12.174;2023-02-25T03:41:38;0.50;;;0.50;;
53513;SDS011;39768;54.148;12.174;2023-02-25T03:45:44;3.90;;;0.75;;
53513;SDS011;39768;54.148;12.174;2023-02-25T03:49:50;0.65;;;0.60;;
53513;SDS011;39768;54.148;12.174;2023-02-25T03:53:56;0.50;;;0.50;;
53513;SDS011;39768;54.148;12.174;2023-02-25T03:58:03;1.75;;;0.52;;
53513;SDS011;39768;54.148;12.174;2023-02-25T04:02:08;0.75;;;0.75;;
53513;SDS011;39768;54.148;12.174;2023-02-25T04:06:11;0.50;;;0.50;;
53513;SDS011;39768;54.148;12.174;2023-02-25T04:10:13;1.35;;;0.73;;
53513;SDS011;39768;54.148;12.174;2023-02-25T04:14:16;0.45;;;0.45;;
53513;SDS011;39768;54.148;12.174;2023-02-25T04:18:19;0.50;;;0.50;;
53513;SDS011;39768;54.148;12.174;2023-02-25T04:22:20;0.50;;;0.50;;
53513;SDS011;39768;54.148;12.174;2023-02-25T04:26:22;1.27;;;0.73;;
53513;SDS011;39768;54.148;12.174;2023-02-25T04:30:24;0.75;;;0.63;;
53513;SDS011;39768;54.148;12.174;2023-02-25T04:34:26;0.30;;;0.30;;
53513;SDS011;39768;54.148;12.174;2023-02-25T04:38:28;2.15;;;0.40;;
53513;SDS011;39768;54.148;12.174;2023-02-25T04:42:29;1.15;;;0.52;;
53513;SDS011;39768;54.148;12.174;2023-02-25T04:46:32;0.52;;;0.52;;
53513;SDS011;39768;54.148;12.174;2023-02-25T04:50:35;0.40;;;0.40;;
53513;SDS011;39768;54.148;12.174;2023-02-25T04:54:36;0.60;;;0.60;;
53513;SDS011;39768;54.148;12.174;2023-02-25T04:58:39;1.23;;;0.50;;
53513;SDS011;39768;54.148;12.174;2023-02-25T05:02:41;0.55;;;0.55;;
53513;SDS011;39768;54.148;12.174;2023-02-25T05:06:43;0.52;;;0.52;;
53513;SDS011;39768;54.148;12.174;2023-02-25T05:10:45;0.70;;;0.70;;
53513;SDS011;39768;54.148;12.174;2023-02-25T05:14:46;0.43;;;0.40;;
53513;SDS011;39768;54.148;12.174;2023-02-25T05:18:48;2.08;;;0.73;;
53513;SDS011;39768;54.148;12.174;2023-02-25T05:22:49;0.35;;;0.35;;
53513;SDS011;39768;54.148;12.174;2023-02-25T05:26:51;0.38;;;0.38;;
53513;SDS011;39768;54.148;12.174;2023-02-25T05:30:52;1.58;;;0.32;;
53513;SDS011;39768;54.148;12.174;2023-02-25T05:34:55;0.50;;;0.50;;
53513;SDS011;39768;54.148;12.174;2023-02-25T05:38:57;0.40;;;0.40;;
53513;SDS011;39768;54.148;12.174;2023-02-25T05:43:03;0.25;;;0.25;;
53513;SDS011;39768;54.148;12.174;2023-02-25T05:47:04;0.43;;;0.43;;
53513;SDS011;39768;54.148;12.174;2023-02-25T05:51:10;0.40;;;0.40;;
53513;SDS011;39768;54.148;12.174;2023-02-25T05:55:13;0.40;;;0.40;;
53513;SDS011;39768;54.148;12.174;2023-02-25T05:59:16;0.73;;;0.40;;
53513;SDS011;39768;54.148;12.174;2023-02-25T06:03:18;0.50;;;0.50;;
53513;SDS011;39768;54.148;12.174;2023-02-25T06:07:20;0.30;;;0.30;;
53513;SDS011;39768;54.148;12.174;2023-02-25T06:11:23;0.20;;;0.20;;
53513;SDS011;39768;54.148;12.174;2023-02-25T06:15:26;0.40;;;0.40;;
53513;SDS011;39768;54.148;12.174;2023-02-25T06:19:28;1.02;;;0.98;;
53513;SDS011;39768;54.148;12.174;2023-02-25T06:23:30;0.50;;;0.47;;
53513;SDS011;39768;54.148;12.174;2023-02-25T06:27:32;0.30;;;0.30;;
53513;SDS011;39768;54.148;12.174;2023-02-25T06:31:33;1.58;;;0.90;;
53513;SDS011;39768;54.148;12.174;2023-02-25T06:35:35;0.30;;;0.30;;
53513;SDS011;39768;54.148;12.174;2023-02-25T06:39:37;0.75;;;0.65;;
53513;SDS011;39768;54.148;12.174;2023-02-25T06:43:43;0.30;;;0.30;;
53513;SDS011;39768;54.148;12.174;2023-02-25T06:47:45;0.52;;;0.50;;
53513;SDS011;39768;54.148;12.174;2023-02-25T06:51:47;0.55;;;0.55;;
53513;SDS011;39768;54.148;12.174;2023-02-25T06:55:51;2.83;;;0.40;;
53513;SDS011;39768;54.148;12.174;2023-02-25T06:59:52;0.50;;;0.50;;
53513;SDS011;39768;54.148;12.174;2023-02-25T07:03:54;0.30;;;0.30;;
53513;SDS011;39768;54.148;12.174;2023-02-25T07:07:55;0.40;;;0.40;;
53513;SDS011;39768;54.148;12.174;2023-02-25T07:11:57;0.43;;;0.32;;
53513;SDS011;39768;54.148;12.174;2023-02-25T07:15:59;13.25;;;0.93;;
53513;SDS011;39768;54.148;12.174;2023-02-25T07:20:01;0.45;;;0.45;;
53513;SDS011;39768;54.148;12.174;2023-02-25T07:24:03;0.35;;;0.35;;
53513;SDS011;39768;54.148;12.174;2023-02-25T07:28:05;0.20;;;0.20;;
53513;SDS011;39768;54.148;12.174;2023-02-25T07:32:07;0.30;;;0.30;;
53513;SDS011;39768;54.148;12.174;2023-02-25T07:36:10;0.43;;;0.30;;
53513;SDS011;39768;54.148;12.174;2023-02-25T07:40:11;0.20;;;0.20;;
53513;SDS011;39768;54.148;12.174;2023-02-25T07:44:13;0.30;;;0.30;;
53513;SDS011;39768;54.148;12.174;2023-02-25T07:48:14;0.20;;;0.20;;
53513;SDS011;39768;54.148;12.174;2023-02-25T07:52:16;0.40;;;0.40;;
53513;SDS011;39768;54.148;12.174;2023-02-25T07:56:18;0.30;;;0.30;;
53513;SDS011;39768;54.148;12.174;2023-02-25T08:00:21;0.30;;;0.30;;
53513;SDS011;39768;54.148;12.174;2023-02-25T08:04:22;1.20;;;1.10;;
53513;SDS011;39768;54.148;12.174;2023-02-25T08:08:24;1.27;;;0.85;;
53513;SDS011;39768;54.148;12.174;2023-02-25T08:12:26;1.33;;;0.77;;
53513;SDS011;39768;54.148;12.174;2023-02-25T08:16:27;2.50;;;0.65;;
53513;SDS011;39768;54.148;12.174;2023-02-25T08:20:29;1.30;;;0.60;;
53513;SDS011;39768;54.148;12.174;2023-02-25T08:24:32;0.80;;;0.80;;
53513;SDS011;39768;54.148;12.174;2023-02-25T08:28:34;0.30;;;0.30;;
53513;SDS011;39768;54.148;12.174;2023-02-25T08:32:37;0.55;;;0.55;;
53513;SDS011;39768;54.148;12.174;2023-02-25T08:36:39;0.43;;;0.43;;
53513;SDS011;39768;54.148;12.174;2023-02-25T08:40:41;0.30;;;0.30;;
53513;SDS011;39768;54.148;12.174;2023-02-25T08:44:43;0.50;;;0.50;;
53513;SDS011;39768;54.148;12.174;2023-02-25T08:48:47;0.40;;;0.40;;
53513;SDS011;39768;54.148;12.174;2023-02-25T08:52:52;0.57;;;0.30;;
53513;SDS011;39768;54.148;12.174;2023-02-25T08:56:53;0.43;;;0.43;;
53513;SDS011;39768;54.148;12.174;2023-02-25T09:00:57;0.40;;;0.40;;
53513;SDS011;39768;54.148;12.174;2023-02-25T09:04:59;1.25;;;0.43;;
53513;SDS011;39768;54.148;12.174;2023-02-25T09:09:00;0.50;;;0.50;;
53513;SDS011;39768;54.148;12.174;2023-02-25T09:13:02;0.20;;;0.20;;
53513;SDS011;39768;54.148;12.174;2023-02-25T09:17:04;0.40;;;0.40;;
53513;SDS011;39768;54.148;12.174;2023-02-25T09:21:06;0.80;;;0.57;;
53513;SDS011;39768;54.148;12.174;2023-02-25T09:25:08;0.40;;;0.40;;
53513;SDS011;39768;54.148;12.174;2023-02-25T09:29:09;0.30;;;0.30;;
53513;SDS011;39768;54.148;12.174;2023-02-25T09:33:11;1.08;;;0.63;;
53513;SDS011;39768;54.148;12.174;2023-02-25T09:37:14;0.55;;;0.40;;
53513;SDS011;39768;54.148;12.174;2023-02-25T09:45:31;0.30;;;0.30;;
53513;SDS011;39768;54.148;12.174;2023-02-25T09:49:37;0.65;;;0.52;;
53513;SDS011;39768;54.148;12.174;2023-02-25T09:53:44;0.40;;;0.40;;
53513;SDS011;39768;54.148;12.174;2023-02-25T10:03:01;0.30;;;0.30;;
53513;SDS011;39768;54.148;12.174;2023-02-25T10:07:14;0.30;;;0.30;;
53513;SDS011;39768;54.148;12.174;2023-02-25T10:15:47;0.40;;;0.40;;
53513;SDS011;39768;54.148;12.174;2023-02-25T10:24:37;0.30;;;0.30;;
53513;SDS011;39768;54.148;12.174;2023-02-25T10:28:41;0.30;;;0.30;;
53513;SDS011;39768;54.148;12.174;2023-02-25T10:32:43;0.30;;;0.30;;
53513;SDS011;39768;54.148;12.174;2023-02-25T10:36:47;0.30;;;0.30;;
53513;SDS011;39768;54.148;12.174;2023-02-25T10:40:55;0.40;;;0.40;;
53513;SDS011;39768;54.148;12.174;2023-02-25T10:44:59;0.52;;;0.52;;
53513;SDS011;39768;54.148;12.174;2023-02-25T10:49:18;0.32;;;0.32;;
53513;SDS011;39768;54.148;12.174;2023-02-25T10:53:23;7.38;;;0.50;;
53513;SDS011;39768;54.148;12.174;2023-02-25T10:57:25;1.48;;;0.32;;
53513;SDS011;39768;54.148;12.174;2023-02-25T11:01:37;1.30;;;0.32;;
53513;SDS011;39768;54.148;12.174;2023-02-25T11:05:40;0.30;;;0.30;;
53513;SDS011;39768;54.148;12.174;2023-02-25T11:09:43;0.22;;;0.22;;
53513;SDS011;39768;54.148;12.174;2023-02-25T11:13:52;3.40;;;0.35;;
53513;SDS011;39768;54.148;12.174;2023-02-25T11:22:28;0.50;;;0.50;;
53513;SDS011;39768;54.148;12.174;2023-02-25T11:26:35;0.40;;;0.40;;
53513;SDS011;39768;54.148;12.174;2023-02-25T11:30:38;2.28;;;0.40;;
53513;SDS011;39768;54.148;12.174;2023-02-25T11:35:23;1.92;;;0.40;;
53513;SDS011;39768;54.148;12.174;2023-02-25T11:39:17;1.67;;;0.32;;
53513;SDS011;39768;54.148;12.174;2023-02-25T11:43:22;0.25;;;0.25;;
53513;SDS011;39768;54.148;12.174;2023-02-25T11:47:26;1.58;;;0.32;;
53513;SDS011;39768;54.148;12.174;2023-02-25T11:51:34;0.30;;;0.30;;
53513;SDS011;39768;54.148;12.174;2023-02-25T12:00:14;0.30;;;0.30;;
53513;SDS011;39768;54.148;12.174;2023-02-25T12:13:44;0.30;;;0.30;;
53513;SDS011;39768;54.148;12.174;2023-02-25T12:31:11;0.80;;;0.40;;
53513;SDS011;39768;54.148;12.174;2023-02-25T12:40:18;0.63;;;0.43;;
53513;SDS011;39768;54.148;12.174;2023-02-25T12:44:44;0.30;;;0.30;;
53513;SDS011;39768;54.148;12.174;2023-02-25T13:07:00;0.65;;;0.52;;
53513;SDS011;39768;54.148;12.174;2023-02-25T13:11:31;0.35;;;0.35;;
53513;SDS011;39768;54.148;12.174;2023-02-25T13:20:46;0.20;;;0.20;;
53513;SDS011;39768;54.148;12.174;2023-02-25T13:33:55;0.50;;;0.50;;
53513;SDS011;39768;54.148;12.174;2023-02-25T13:51:39;0.43;;;0.40;;
53513;SDS011;39768;54.148;12.174;2023-02-25T13:56:08;0.30;;;0.30;;
53513;SDS011;39768;54.148;12.174;2023-02-25T14:00:31;1.17;;;0.30;;
53513;SDS011;39768;54.148;12.174;2023-02-25T14:09:08;0.30;;;0.30;;
53513;SDS011;39768;54.148;12.174;2023-02-25T14:13:32;0.40;;;0.40;;
53513;SDS011;39768;54.148;12.174;2023-02-25T14:22:21;0.38;;;0.38;;
53513;SDS011;39768;54.148;12.174;2023-02-25T14:26:31;0.40;;;0.40;;
53513;SDS011;39768;54.148;12.174;2023-02-25T14:44:11;0.30;;;0.30;;
53513;SDS011;39768;54.148;12.174;2023-02-25T14:52:54;0.28;;;0.28;;
53513;SDS011;39768;54.148;12.174;2023-02-25T14:57:21;7.13;;;0.70;;
53513;SDS011;39768;54.148;12.174;2023-02-25T15:10:36;0.50;;;0.50;;
53513;SDS011;39768;54.148;12.174;2023-02-25T15:23:43;0.30;;;0.30;;
53513;SDS011;39768;54.148;12.174;2023-02-25T15:27:51;2.30;;;0.30;;
53513;SDS011;39768;54.148;12.174;2023-02-25T15:48:22;0.20;;;0.20;;
53513;SDS011;39768;54.148;12.174;2023-02-25T15:52:48;0.40;;;0.40;;
53513;SDS011;39768;54.148;12.174;2023-02-25T15:56:53;0.32;;;0.32;;
53513;SDS011;39768;54.148;12.174;2023-02-25T16:09:15;3.17;;;2.58;;
53513;SDS011;39768;54.148;12.174;2023-02-25T16:13:23;5.93;;;1.50;;
53513;SDS011;39768;54.148;12.174;2023-02-25T16:17:28;10.80;;;3.55;;
53513;SDS011;39768;54.148;12.174;2023-02-25T16:25:41;11.93;;;4.30;;
53513;SDS011;39768;54.148;12.174;2023-02-25T16:29:59;13.18;;;3.42;;
53513;SDS011;39768;54.148;12.174;2023-02-25T16:38:29;4.35;;;1.27;;
53513;SDS011;39768;54.148;12.174;2023-02-25T16:42:41;5.18;;;1.52;;
53513;SDS011;39768;54.148;12.174;2023-02-25T16:46:47;0.30;;;0.30;;
53513;SDS011;39768;54.148;12.174;2023-02-25T16:50:51;0.40;;;0.40;;
53513;SDS011;39768;54.148;12.174;2023-02-25T16:54:57;0.40;;;0.40;;
53513;SDS011;39768;54.148;12.174;2023-02-25T16:59:05;0.60;;;0.60;;
53513;SDS011;39768;54.148;12.174;2023-02-25T17:03:14;0.68;;;0.68;;
53513;SDS011;39768;54.148;12.174;2023-02-25T17:07:22;0.30;;;0.30;;
53513;SDS011;39768;54.148;12.174;2023-02-25T17:11:25;0.52;;;0.52;;
53513;SDS011;39768;54.148;12.174;2023-02-25T17:15:28;0.60;;;0.60;;
53513;SDS011;39768;54.148;12.174;2023-02-25T17:19:32;1.30;;;0.50;;
53513;SDS011;39768;54.148;12.174;2023-02-25T17:23:37;0.50;;;0.50;;
53513;SDS011;39768;54.148;12.174;2023-02-25T17:27:41;1.55;;;0.50;;
53513;SDS011;39768;54.148;12.174;2023-02-25T17:31:45;0.30;;;0.30;;
53513;SDS011;39768;54.148;12.174;2023-02-25T17:35:50;0.55;;;0.55;;
53513;SDS011;39768;54.148;12.174;2023-02-25T17:39:54;0.45;;;0.40;;
53513;SDS011;39768;54.148;12.174;2023-02-25T17:43:57;0.32;;;0.32;;
53513;SDS011;39768;54.148;12.174;2023-02-25T17:47:58;0.30;;;0.30;;
53513;SDS011;39768;54.148;12.174;2023-02-25T17:52:06;0.40;;;0.40;;
53513;SDS011;39768;54.148;12.174;2023-02-25T17:56:28;0.30;;;0.30;;
53513;SDS011;39768;54.148;12.174;2023-02-25T18:00:33;0.30;;;0.30;;
53513;SDS011;39768;54.148;12.174;2023-02-25T18:04:37;0.32;;;0.32;;
53513;SDS011;39768;54.148;12.174;2023-02-25T18:08:51;0.30;;;0.30;;
53513;SDS011;39768;54.148;12.174;2023-02-25T18:12:54;0.40;;;0.40;;
53513;SDS011;39768;54.148;12.174;2023-02-25T18:16:56;0.40;;;0.40;;
53513;SDS011;39768;54.148;12.174;2023-02-25T18:20:59;0.20;;;0.20;;
53513;SDS011;39768;54.148;12.174;2023-02-25T18:25:03;3.33;;;0.40;;
53513;SDS011;39768;54.148;12.174;2023-02-25T18:29:08;1.25;;;1.15;;
53513;SDS011;39768;54.148;12.174;2023-02-25T18:33:10;0.85;;;0.50;;
53513;SDS011;39768;54.148;12.174;2023-02-25T18:37:12;0.40;;;0.40;;
53513;SDS011;39768;54.148;12.174;2023-02-25T18:41:17;6.63;;;1.83;;
53513;SDS011;39768;54.148;12.174;2023-02-25T18:45:19;0.40;;;0.40;;
53513;SDS011;39768;54.148;12.174;2023-02-25T18:49:23;3.60;;;0.63;;
53513;SDS011;39768;54.148;12.174;2023-02-25T18:53:24;2.92;;;0.60;;
53513;SDS011;39768;54.148;12.174;2023-02-25T18:57:26;1.13;;;1.10;;
53513;SDS011;39768;54.148;12.174;2023-02-25T19:01:30;0.52;;;0.52;;
53513;SDS011;39768;54.148;12.174;2023-02-25T19:05:33;0.30;;;0.30;;
53513;SDS011;39768;54.148;12.174;2023-02-25T19:09:34;1.45;;;0.50;;
53513;SDS011;39768;54.148;12.174;2023-02-25T19:13:37;0.70;;;0.70;;
53513;SDS011;39768;54.148;12.174;2023-02-25T19:17:41;0.40;;;0.40;;
53513;SDS011;39768;54.148;12.174;2023-02-25T19:21:43;0.40;;;0.40;;
53513;SDS011;39768;54.148;12.174;2023-02-25T19:25:46;3.38;;;0.60;;
53513;SDS011;39768;54.148;12.174;2023-02-25T19:29:51;0.40;;;0.40;;
53513;SDS011;39768;54.148;12.174;2023-02-25T19:33:54;0.30;;;0.30;;
53513;SDS011;39768;54.148;12.174;2023-02-25T19:37:56;0.40;;;0.40;;
53513;SDS011;39768;54.148;12.174;2023-02-25T19:41:58;0.30;;;0.30;;
53513;SDS011;39768;54.148;12.174;2023-02-25T19:45:59;6.55;;;1.67;;
53513;SDS011;39768;54.148;12.174;2023-02-25T19:50:02;8.43;;;2.15;;
53513;SDS011;39768;54.148;12.174;2023-02-25T19:54:04;3.33;;;1.70;;
53513;SDS011;39768;54.148;12.174;2023-02-25T19:58:05;0.40;;;0.40;;
53513;SDS011;39768;54.148;12.174;2023-02-25T20:02:08;0.30;;;0.30;;
53513;SDS011;39768;54.148;12.174;2023-02-25T20:06:12;0.30;;;0.30;;
53513;SDS011;39768;54.148;12.174;2023-02-25T20:10:14;0.30;;;0.30;;
53513;SDS011;39768;54.148;12.174;2023-02-25T20:14:16;0.30;;;0.30;;
53513;SDS011;39768;54.148;12.174;2023-02-25T20:18:18;0.43;;;0.43;;
53513;SDS011;39768;54.148;12.174;2023-02-25T20:22:19;4.13;;;0.50;;
53513;SDS011;39768;54.148;12.174;2023-02-25T20:26:24;0.35;;;0.35;;
53513;SDS011;39768;54.148;12.174;2023-02-25T20:30:28;1.23;;;1.00;;
53513;SDS011;39768;54.148;12.174;2023-02-25T20:34:30;1.38;;;1.27;;
53513;SDS011;39768;54.148;12.174;2023-02-25T20:38:36;0.60;;;0.60;;
53513;SDS011;39768;54.148;12.174;2023-02-25T20:42:41;2.83;;;0.95;;
53513;SDS011;39768;54.148;12.174;2023-02-25T20:46:42;0.47;;;0.47;;
53513;SDS011;39768;54.148;12.174;2023-02-25T20:50:44;0.40;;;0.40;;
53513;SDS011;39768;54.148;12.174;2023-02-25T20:54:46;1.33;;;0.40;;
53513;SDS011;39768;54.148;12.174;2023-02-25T20:58:50;0.40;;;0.40;;
53513;SDS011;39768;54.148;12.174;2023-02-25T21:02:51;0.82;;;0.40;;
53513;SDS011;39768;54.148;12.174;2023-02-25T21:06:53;0.32;;;0.32;;
53513;SDS011;39768;54.148;12.174;2023-02-25T21:10:57;0.20;;;0.20;;
53513;SDS011;39768;54.148;12.174;2023-02-25T21:14:59;0.57;;;0.43;;
53513;SDS011;39768;54.148;12.174;2023-02-25T21:19:02;0.30;;;0.30;;
53513;SDS011;39768;54.148;12.174;2023-02-25T21:23:04;0.38;;;0.38;;
53513;SDS011;39768;54.148;12.174;2023-02-25T21:27:06;0.25;;;0.25;;
53513;SDS011;39768;54.148;12.174;2023-02-25T21:31:09;0.30;;;0.30;;
53513;SDS011;39768;54.148;12.174;2023-02-25T21:35:11;1.17;;;0.60;;
53513;SDS011;39768;54.148;12.174;2023-02-25T21:39:13;0.30;;;0.30;;
53513;SDS011;39768;54.148;12.174;2023-02-25T21:43:14;0.77;;;0.77;;
53513;SDS011;39768;54.148;12.174;2023-02-25T21:47:16;0.60;;;0.60;;
53513;SDS011;39768;54.148;12.174;2023-02-25T21:51:19;0.50;;;0.50;;
53513;SDS011;39768;54.148;12.174;2023-02-25T21:55:25;4.43;;;1.55;;
53513;SDS011;39768;54.148;12.174;2023-02-25T21:59:26;2.72;;;1.13;;
53513;SDS011;39768;54.148;12.174;2023-02-25T22:03:28;1.65;;;0.85;;
53513;SDS011;39768;54.148;12.174;2023-02-25T22:07:29;0.40;;;0.40;;
53513;SDS011;39768;54.148;12.174;2023-02-25T22:11:32;0.40;;;0.40;;
53513;SDS011;39768;54.148;12.174;2023-02-25T22:15:35;0.30;;;0.30;;
53513;SDS011;39768;54.148;12.174;2023-02-25T22:19:36;0.32;;;0.32;;
53513;SDS011;39768;54.148;12.174;2023-02-25T22:23:39;0.40;;;0.40;;
53513;SDS011;39768;54.148;12.174;2023-02-25T22:27:41;0.38;;;0.38;;
53513;SDS011;39768;54.148;12.174;2023-02-25T22:31:42;0.30;;;0.30;;
53513;SDS011;39768;54.148;12.174;2023-02-25T22:35:51;0.30;;;0.30;;
53513;SDS011;39768;54.148;12.174;2023-02-25T22:39:57;0.40;;;0.28;;
53513;SDS011;39768;54.148;12.174;2023-02-25T22:43:59;0.40;;;0.40;;
53513;SDS011;39768;54.148;12.174;2023-02-25T22:48:01;0.43;;;0.43;;
53513;SDS011;39768;54.148;12.174;2023-02-25T22:52:02;0.43;;;0.43;;
53513;SDS011;39768;54.148;12.174;2023-02-25T22:56:04;0.30;;;0.30;;
53513;SDS011;39768;54.148;12.174;2023-02-25T23:00:09;0.65;;;0.43;;
53513;SDS011;39768;54.148;12.174;2023-02-25T23:04:16;0.30;;;0.30;;
53513;SDS011;39768;54.148;12.174;2023-02-25T23:08:18;0.30;;;0.30;;
53513;SDS011;39768;54.148;12.174;2023-02-25T23:12:19;0.40;;;0.40;;
53513;SDS011;39768;54.148;12.174;2023-02-25T23:16:22;0.50;;;0.50;;
53513;SDS011;39768;54.148;12.174;2023-02-25T23:20:28;0.30;;;0.30;;
53513;SDS011;39768;54.148;12.174;2023-02-25T23:24:31;2.15;;;0.35;;
53513;SDS011;39768;54.148;12.174;2023-02-25T23:28:33;0.40;;;0.40;;
53513;SDS011;39768;54.148;12.174;2023-02-25T23:32:36;0.30;;;0.30;;
53513;SDS011;39768;54.148;12.174;2023-02-25T23:36:41;0.60;;;0.38;;
53513;SDS011;39768;54.148;12.174;2023-02-25T23:40:43;0.40;;;0.40;;
53513;SDS011;39768;54.148;12.174;2023-02-25T23:44:45;1.08;;;0.40;;
53513;SDS011;39768;54.148;12.174;2023-02-25T23:48:46;0.30;;;0.30;;
53513;SDS011;39768;54.148;12.174;2023-02-25T23:52:48;0.30;;;0.30;;
53513;SDS011;39768;54.148;12.174;2023-02-25T23:56:49;0.65;;;0.40;;
